Time;durP1;ratioP1;P1;durP2;ratioP2;P2;SDS_P1;SDS_P2;PMS_P1;PMS_P2;Temp;Humidity;BMP_temperature;BMP_pressure;BME280_temperature;BME280_humidity;BME280_pressure;Samples;Min_cycle;Max_cycle;Signal;HPM_P1;HPM_P2
2021/10/23 00:01:50;;;;;;;10.05;3.47;;;5.60;99.90;;;;;;5095929;27;20030;-74
2021/10/23 00:04:17;;;;;;;12.73;3.42;;;5.70;99.90;;;;;;5105652;27;20019;-74
2021/10/23 00:06:44;;;;;;;10.57;3.58;;;5.70;99.90;;;;;;5074589;27;20452;-74
2021/10/23 00:09:10;;;;;;;8.43;3.20;;;5.80;99.90;;;;;;5089204;27;20031;-74
2021/10/23 00:11:36;;;;;;;11.30;4.47;;;5.80;99.90;;;;;;5108005;27;20039;-73
2021/10/23 00:14:03;;;;;;;10.35;4.25;;;5.90;99.90;;;;;;5089855;27;20039;-74
2021/10/23 00:16:30;;;;;;;14.02;3.85;;;5.90;99.90;;;;;;5106477;27;20052;-73
2021/10/23 00:18:56;;;;;;;11.27;3.53;;;6.00;99.90;;;;;;5092756;27;20050;-74
2021/10/23 00:21:23;;;;;;;12.60;3.88;;;6.00;99.90;;;;;;5081887;27;20031;-74
2021/10/23 00:23:49;;;;;;;9.80;3.55;;;6.00;99.90;;;;;;5111354;27;20032;-74
2021/10/23 00:26:16;;;;;;;12.32;4.20;;;6.00;99.90;;;;;;5107839;27;20032;-74
2021/10/23 00:28:42;;;;;;;12.40;3.53;;;6.10;99.90;;;;;;5090829;27;20054;-74
2021/10/23 00:31:10;;;;;;;13.93;4.10;;;6.10;99.90;;;;;;5074381;27;20734;-74
2021/10/23 00:33:38;;;;;;;13.95;4.20;;;6.10;99.90;;;;;;5109516;27;20039;-74
2021/10/23 00:36:05;;;;;;;12.07;4.75;;;6.10;99.90;;;;;;5107614;27;20160;-74
2021/10/23 00:38:32;;;;;;;9.23;3.22;;;6.20;99.90;;;;;;5110714;27;20670;-74
2021/10/23 00:40:58;;;;;;;12.73;3.83;;;6.20;99.90;;;;;;5093577;27;20048;-74
2021/10/23 00:43:25;;;;;;;8.70;3.50;;;6.20;99.90;;;;;;5092395;27;20038;-74
2021/10/23 00:45:51;;;;;;;12.38;4.10;;;6.20;99.90;;;;;;5092222;27;20032;-74
2021/10/23 00:48:18;;;;;;;10.10;3.83;;;6.20;99.90;;;;;;5108981;27;20031;-75
2021/10/23 00:50:47;;;;;;;13.63;4.10;;;6.20;99.90;;;;;;5072839;27;20046;-75
2021/10/23 00:53:14;;;;;;;12.35;4.68;;;6.20;99.90;;;;;;5126651;27;20403;-74
2021/10/23 00:55:42;;;;;;;10.40;3.15;;;6.20;99.90;;;;;;5079610;27;20440;-75
2021/10/23 00:58:09;;;;;;;12.75;3.42;;;6.20;99.90;;;;;;5056000;28;20039;-74
2021/10/23 01:00:35;;;;;;;8.10;3.08;;;6.20;99.90;;;;;;5094418;27;20035;-75
2021/10/23 01:03:02;;;;;;;8.55;3.20;;;6.10;99.90;;;;;;5094395;27;21417;-74
2021/10/23 01:05:28;;;;;;;7.22;3.38;;;6.10;99.90;;;;;;5093881;27;20043;-75
2021/10/23 01:07:55;;;;;;;10.05;3.67;;;6.10;99.90;;;;;;5092453;27;20039;-74
2021/10/23 01:10:21;;;;;;;10.52;3.03;;;6.00;99.90;;;;;;5118075;27;20036;-73
2021/10/23 01:12:48;;;;;;;10.82;3.63;;;6.00;99.90;;;;;;5118447;27;20023;-73
2021/10/23 01:15:21;;;;;;;11.90;3.15;;;6.00;99.90;;;;;;5125715;27;20039;-75
2021/10/23 01:17:49;;;;;;;13.57;4.10;;;6.00;99.90;;;;;;5131417;27;20031;-74
2021/10/23 01:20:17;;;;;;;11.70;3.60;;;5.90;99.90;;;;;;5115783;27;20364;-74
2021/10/23 01:22:44;;;;;;;10.52;3.97;;;5.90;99.90;;;;;;5109475;27;21246;-74
2021/10/23 01:25:11;;;;;;;10.23;2.88;;;5.90;99.90;;;;;;5105787;27;20035;-74
2021/10/23 01:27:39;;;;;;;8.18;3.53;;;5.80;99.90;;;;;;5109002;27;20031;-75
2021/10/23 01:30:08;;;;;;;6.43;2.90;;;5.80;99.90;;;;;;5106746;27;20031;-75
2021/10/23 01:32:36;;;;;;;7.63;2.40;;;5.70;99.90;;;;;;5107584;27;20128;-75
2021/10/23 01:35:04;;;;;;;7.20;2.60;;;5.70;99.90;;;;;;5110974;27;20039;-75
2021/10/23 01:37:43;;;;;;;8.02;3.03;;;5.60;99.90;;;;;;5090257;27;20050;-74
2021/10/23 01:40:13;;;;;;;7.10;2.80;;;5.60;99.90;;;;;;5108804;27;20046;-74
2021/10/23 01:42:39;;;;;;;6.22;2.50;;;5.60;99.90;;;;;;5102422;27;20043;-74
2021/10/23 01:45:07;;;;;;;9.68;2.92;;;5.50;99.90;;;;;;5111200;27;20391;-75
2021/10/23 01:47:36;;;;;;;6.30;3.45;;;5.50;99.90;;;;;;5110936;27;20027;-74
2021/10/23 01:50:04;;;;;;;11.15;3.70;;;5.40;99.90;;;;;;5108636;27;20038;-74
2021/10/23 01:52:30;;;;;;;7.97;3.63;;;5.40;99.90;;;;;;5120695;27;20033;-74
2021/10/23 01:54:57;;;;;;;11.13;4.13;;;5.40;99.90;;;;;;5094796;27;20468;-74
2021/10/23 01:57:23;;;;;;;11.63;4.38;;;5.40;99.90;;;;;;5112155;27;20499;-74
2021/10/23 01:59:51;;;;;;;7.82;3.65;;;5.40;99.90;;;;;;5087310;27;20039;-74
2021/10/23 02:02:17;;;;;;;8.48;3.00;;;5.30;99.90;;;;;;5121732;27;20023;-74
2021/10/23 02:04:43;;;;;;;8.00;3.40;;;5.30;99.90;;;;;;5095598;27;20042;-74
2021/10/23 02:07:10;;;;;;;6.85;3.25;;;5.30;99.90;;;;;;5090238;27;20050;-74
2021/10/23 02:09:36;;;;;;;6.53;2.90;;;5.20;99.90;;;;;;5076279;27;20043;-75
2021/10/23 02:12:03;;;;;;;9.43;4.85;;;5.20;99.90;;;;;;5106212;27;20039;-74
2021/10/23 02:14:29;;;;;;;7.97;3.55;;;5.20;99.90;;;;;;5085819;27;20043;-74
2021/10/23 02:16:56;;;;;;;6.95;2.78;;;5.20;99.90;;;;;;5107455;27;20039;-74
2021/10/23 02:19:22;;;;;;;9.85;3.58;;;5.10;99.90;;;;;;5088487;27;20048;-74
2021/10/23 02:21:49;;;;;;;10.10;4.18;;;5.10;99.90;;;;;;5074430;27;20042;-74
2021/10/23 02:24:15;;;;;;;7.93;3.78;;;5.10;99.90;;;;;;5073788;27;20039;-74
2021/10/23 02:26:42;;;;;;;9.10;4.00;;;5.10;99.90;;;;;;5072423;27;20043;-74
2021/10/23 02:29:08;;;;;;;7.50;3.70;;;5.10;99.90;;;;;;5069492;27;20039;-74
2021/10/23 02:31:35;;;;;;;6.55;4.18;;;5.10;99.90;;;;;;5090746;27;20042;-76
2021/10/23 02:34:02;;;;;;;6.05;2.95;;;5.10;99.90;;;;;;5091323;28;20046;-76
2021/10/23 02:36:28;;;;;;;6.15;3.47;;;5.20;99.90;;;;;;5098507;27;20510;-76
2021/10/23 02:38:55;;;;;;;8.43;2.42;;;5.20;99.90;;;;;;5076757;27;20054;-76
2021/10/23 02:41:24;;;;;;;6.53;3.45;;;5.30;99.90;;;;;;5109944;27;20042;-76
2021/10/23 02:43:55;;;;;;;7.90;3.05;;;5.30;99.90;;;;;;5113206;27;20522;-77
2021/10/23 02:46:22;;;;;;;11.35;3.85;;;5.40;99.90;;;;;;5135048;27;20030;-76
2021/10/23 02:48:49;;;;;;;10.35;5.13;;;5.40;99.90;;;;;;5095508;27;20097;-76
2021/10/23 02:51:16;;;;;;;10.52;3.97;;;5.40;99.90;;;;;;5096109;27;20039;-77
2021/10/23 02:53:42;;;;;;;11.23;3.97;;;5.40;99.90;;;;;;5113034;27;20031;-76
2021/10/23 02:56:09;;;;;;;6.35;3.60;;;5.50;99.90;;;;;;5077617;27;20356;-77
2021/10/23 02:58:36;;;;;;;5.00;3.60;;;5.50;99.90;;;;;;5093992;27;20048;-77
2021/10/23 03:01:03;;;;;;;13.05;4.13;;;5.50;99.90;;;;;;5075220;28;20030;-76
2021/10/23 03:03:29;;;;;;;7.50;3.78;;;5.50;99.90;;;;;;5109840;27;20042;-77
2021/10/23 03:05:56;;;;;;;9.73;4.07;;;5.60;99.90;;;;;;5097770;27;20467;-76
2021/10/23 03:08:22;;;;;;;14.15;6.63;;;5.50;99.90;;;;;;5111631;28;20031;-77
2021/10/23 03:10:49;;;;;;;8.20;5.07;;;5.60;99.90;;;;;;5109223;27;20057;-77
2021/10/23 03:13:18;;;;;;;11.90;5.63;;;5.70;99.90;;;;;;5076637;27;20034;-77
2021/10/23 03:15:45;;;;;;;9.25;4.10;;;5.70;99.90;;;;;;5122737;27;20031;-76
2021/10/23 03:18:11;;;;;;;9.93;4.65;;;5.70;99.90;;;;;;5094656;28;20411;-77
2021/10/23 03:20:38;;;;;;;5.97;2.97;;;5.70;99.90;;;;;;5077532;28;20036;-77
2021/10/23 03:23:04;;;;;;;6.85;3.72;;;5.70;99.90;;;;;;5109047;28;20030;-77
2021/10/23 03:25:31;;;;;;;8.88;3.78;;;5.70;99.90;;;;;;5114792;27;20042;-78
2021/10/23 03:27:57;;;;;;;7.28;3.72;;;5.70;99.90;;;;;;5080061;27;20047;-78
2021/10/23 03:30:27;;;;;;;8.57;3.55;;;5.60;99.90;;;;;;5095066;28;20028;-78
2021/10/23 03:32:54;;;;;;;6.75;3.60;;;5.70;99.90;;;;;;5109680;28;20042;-78
2021/10/23 03:35:21;;;;;;;7.45;3.80;;;5.70;99.90;;;;;;5078624;28;20039;-77
2021/10/23 03:37:47;;;;;;;6.13;3.90;;;5.70;99.90;;;;;;5078037;27;20490;-78
2021/10/23 03:40:14;;;;;;;7.03;3.55;;;5.60;99.90;;;;;;5074125;27;20032;-77
2021/10/23 03:42:40;;;;;;;6.93;3.67;;;5.60;99.90;;;;;;5073888;27;20038;-77
2021/10/23 03:45:08;;;;;;;7.32;3.60;;;5.60;99.90;;;;;;5115831;27;20394;-77
2021/10/23 03:47:35;;;;;;;8.50;3.47;;;5.50;99.90;;;;;;5097847;27;20396;-77
2021/10/23 03:50:04;;;;;;;5.55;2.97;;;5.40;99.90;;;;;;5112248;27;20067;-77
2021/10/23 03:52:32;;;;;;;6.50;3.75;;;5.40;99.90;;;;;;5114502;27;20038;-77
2021/10/23 03:54:58;;;;;;;9.43;3.65;;;5.30;99.90;;;;;;5096220;27;21409;-76
2021/10/23 03:57:25;;;;;;;6.60;4.18;;;5.30;99.90;;;;;;5127641;27;20507;-77
2021/10/23 03:59:51;;;;;;;9.38;4.10;;;5.20;99.90;;;;;;5095973;27;20038;-77
2021/10/23 04:02:18;;;;;;;8.45;4.05;;;5.20;99.90;;;;;;5099483;27;20417;-77
2021/10/23 04:04:44;;;;;;;6.68;4.03;;;5.20;99.90;;;;;;5111868;27;20038;-77
2021/10/23 04:07:11;;;;;;;8.07;4.22;;;5.10;99.90;;;;;;5094127;27;20051;-77
2021/10/23 04:09:38;;;;;;;7.72;4.38;;;5.10;99.90;;;;;;5115942;27;20049;-77
2021/10/23 04:12:05;;;;;;;7.38;4.32;;;5.00;99.90;;;;;;5122391;27;20046;-77
2021/10/23 04:14:31;;;;;;;9.95;4.47;;;5.00;99.90;;;;;;5109923;27;20403;-77
2021/10/23 04:16:58;;;;;;;6.80;3.78;;;5.00;99.90;;;;;;5115852;27;20038;-77
2021/10/23 04:19:25;;;;;;;6.70;3.63;;;4.90;99.90;;;;;;5101412;27;20042;-77
2021/10/23 04:21:51;;;;;;;9.10;4.15;;;4.90;99.90;;;;;;5090857;27;20050;-76
2021/10/23 04:24:17;;;;;;;8.10;4.70;;;4.90;99.90;;;;;;5115016;27;20038;-76
2021/10/23 04:26:44;;;;;;;13.27;5.47;;;4.90;99.90;;;;;;5116611;27;20035;-76
2021/10/23 04:29:10;;;;;;;9.63;4.85;;;4.80;99.90;;;;;;5120097;27;20368;-76
2021/10/23 04:31:36;;;;;;;16.85;6.75;;;4.90;99.90;;;;;;5103632;27;20031;-77
2021/10/23 04:34:03;;;;;;;10.73;5.63;;;4.90;99.90;;;;;;5094951;27;20039;-76
2021/10/23 04:36:29;;;;;;;9.05;5.90;;;4.90;99.90;;;;;;5123535;27;20046;-77
2021/10/23 04:38:56;;;;;;;10.35;4.90;;;4.90;99.90;;;;;;5094670;27;20035;-76
2021/10/23 04:41:22;;;;;;;12.70;6.10;;;4.90;99.90;;;;;;5123629;27;20023;-76
2021/10/23 04:43:49;;;;;;;8.15;5.50;;;4.90;99.90;;;;;;5114744;27;20031;-77
2021/10/23 04:46:15;;;;;;;9.82;6.35;;;4.90;99.90;;;;;;5120598;27;20034;-76
2021/10/23 04:48:42;;;;;;;9.00;5.68;;;4.90;99.90;;;;;;5113623;27;20037;-76
2021/10/23 04:51:08;;;;;;;7.18;5.10;;;4.90;99.90;;;;;;5115233;27;20029;-77
2021/10/23 04:53:35;;;;;;;11.10;6.00;;;4.90;99.90;;;;;;5111754;27;20586;-76
2021/10/23 04:56:01;;;;;;;9.87;5.50;;;4.90;99.90;;;;;;5129840;27;20046;-77
2021/10/23 04:58:30;;;;;;;10.40;5.85;;;4.90;99.90;;;;;;5100080;27;20045;-77
2021/10/23 05:00:59;;;;;;;9.63;5.85;;;4.90;99.90;;;;;;5132267;27;20031;-77
2021/10/23 05:03:27;;;;;;;9.43;5.32;;;4.90;99.90;;;;;;5096454;27;20042;-76
2021/10/23 05:05:53;;;;;;;10.05;5.55;;;4.90;99.90;;;;;;5112899;27;20511;-76
2021/10/23 05:08:20;;;;;;;9.30;5.30;;;4.90;99.90;;;;;;5077814;27;20051;-76
2021/10/23 05:10:47;;;;;;;7.75;4.90;;;4.90;99.90;;;;;;5111890;27;20051;-76
2021/10/23 05:13:14;;;;;;;7.55;4.35;;;4.90;99.90;;;;;;5122132;27;20512;-77
2021/10/23 05:15:40;;;;;;;8.35;4.97;;;4.90;99.90;;;;;;5125995;27;20034;-77
2021/10/23 05:18:07;;;;;;;10.25;5.50;;;4.90;99.90;;;;;;5097853;27;20039;-77
2021/10/23 05:20:33;;;;;;;10.52;6.50;;;4.90;99.90;;;;;;5114942;27;20039;-76
2021/10/23 05:23:00;;;;;;;11.30;6.32;;;4.90;99.90;;;;;;5111978;27;20027;-76
2021/10/23 05:25:27;;;;;;;8.00;6.05;;;4.90;99.90;;;;;;5113809;27;20032;-74
2021/10/23 05:27:54;;;;;;;8.30;6.28;;;4.90;99.90;;;;;;5097249;27;20096;-76
2021/10/23 05:30:20;;;;;;;9.73;5.93;;;4.90;99.90;;;;;;5113910;27;20039;-77
2021/10/23 05:32:47;;;;;;;11.95;5.93;;;4.90;99.90;;;;;;5134217;27;20042;-76
2021/10/23 05:35:13;;;;;;;9.32;5.93;;;4.90;99.90;;;;;;5108858;27;20053;-77
2021/10/23 05:37:39;;;;;;;7.80;5.60;;;4.90;99.90;;;;;;5115858;27;20034;-76
2021/10/23 05:40:06;;;;;;;9.73;5.53;;;4.90;99.90;;;;;;5113714;27;20075;-76
2021/10/23 05:42:33;;;;;;;10.15;5.85;;;4.90;99.90;;;;;;5109848;27;20035;-76
2021/10/23 05:44:59;;;;;;;9.63;5.60;;;4.90;99.90;;;;;;5112857;27;20034;-76
2021/10/23 05:47:26;;;;;;;13.35;5.60;;;4.90;99.90;;;;;;5113653;27;20043;-76
2021/10/23 05:49:52;;;;;;;6.90;4.68;;;4.80;99.90;;;;;;5110315;27;20392;-73
2021/10/23 05:52:19;;;;;;;7.88;4.80;;;4.80;99.90;;;;;;5130889;27;20061;-74
2021/10/23 05:54:45;;;;;;;6.10;4.32;;;4.80;99.90;;;;;;5080676;27;20476;-74
2021/10/23 05:57:11;;;;;;;10.90;4.40;;;4.80;99.90;;;;;;5081114;27;20042;-74
2021/10/23 05:59:41;;;;;;;7.95;4.95;;;4.80;99.90;;;;;;5116077;27;20026;-74
2021/10/23 06:04:57;;;;;;;9.10;4.70;;;4.70;99.90;;;;;;5109172;27;20353;-74
2021/10/23 06:07:25;;;;;;;8.60;4.82;;;4.70;99.90;;;;;;5082125;27;20501;-74
2021/10/23 06:09:53;;;;;;;7.97;4.70;;;4.70;99.90;;;;;;5126425;27;20052;-74
2021/10/23 06:12:20;;;;;;;9.35;5.30;;;4.60;99.90;;;;;;5115685;27;20041;-74
2021/10/23 06:14:46;;;;;;;7.70;5.40;;;4.60;99.90;;;;;;5127724;27;20487;-73
2021/10/23 06:17:13;;;;;;;7.95;4.90;;;4.50;99.90;;;;;;5126867;27;20041;-74
2021/10/23 06:19:41;;;;;;;9.38;5.22;;;4.50;99.90;;;;;;5096940;28;20043;-74
2021/10/23 06:22:07;;;;;;;9.60;5.97;;;4.50;99.90;;;;;;5116637;27;20038;-73
2021/10/23 06:24:34;;;;;;;7.78;4.90;;;4.50;99.90;;;;;;5075862;27;20480;-73
2021/10/23 06:27:02;;;;;;;8.00;5.50;;;4.40;99.90;;;;;;5109827;27;20034;-73
2021/10/23 06:29:29;;;;;;;10.82;5.72;;;4.40;99.90;;;;;;5113187;27;20038;-73
2021/10/23 06:31:56;;;;;;;6.80;5.60;;;4.40;99.90;;;;;;5103797;27;20046;-76
2021/10/23 06:34:23;;;;;;;5.83;4.57;;;4.40;99.90;;;;;;5074999;27;20050;-76
2021/10/23 06:36:50;;;;;;;10.10;5.13;;;4.40;99.90;;;;;;5098334;27;20038;-76
2021/10/23 06:39:16;;;;;;;8.95;5.38;;;4.40;99.90;;;;;;5113604;27;20042;-77
2021/10/23 06:41:42;;;;;;;8.68;6.00;;;4.40;99.90;;;;;;5100471;27;20038;-76
2021/10/23 06:44:09;;;;;;;9.63;5.82;;;4.40;99.90;;;;;;5092762;27;20027;-76
2021/10/23 06:46:37;;;;;;;7.93;5.95;;;4.50;99.90;;;;;;5089076;27;20042;-76
2021/10/23 06:49:05;;;;;;;8.25;4.97;;;4.50;99.90;;;;;;5118597;27;20481;-76
2021/10/23 06:51:32;;;;;;;8.25;6.15;;;4.50;99.90;;;;;;5105909;27;20032;-77
2021/10/23 06:53:59;;;;;;;10.52;6.05;;;4.60;99.90;;;;;;5087107;27;20027;-75
2021/10/23 06:56:27;;;;;;;15.02;7.10;;;4.60;99.90;;;;;;5108489;28;20034;-75
2021/10/23 06:58:54;;;;;;;9.03;5.97;;;4.60;99.90;;;;;;5079089;27;20521;-76
2021/10/23 07:01:22;;;;;;;11.98;6.13;;;4.60;99.90;;;;;;5080670;27;20039;-75
2021/10/23 07:03:49;;;;;;;13.73;7.03;;;4.70;99.90;;;;;;5093719;28;20466;-76
2021/10/23 07:06:16;;;;;;;11.30;6.60;;;4.80;99.90;;;;;;5093350;28;20042;-76
2021/10/23 07:08:42;;;;;;;11.38;8.13;;;4.90;99.90;;;;;;5120635;27;20055;-76
2021/10/23 07:11:09;;;;;;;13.82;7.70;;;5.00;99.90;;;;;;5127913;27;20086;-76
2021/10/23 07:13:36;;;;;;;12.53;7.23;;;5.20;99.90;;;;;;5105903;27;20039;-76
2021/10/23 07:16:03;;;;;;;21.67;11.13;;;5.40;99.90;;;;;;5115833;27;20043;-76
2021/10/23 07:18:29;;;;;;;20.75;11.30;;;5.60;99.90;;;;;;5109559;27;20043;-76
2021/10/23 07:20:56;;;;;;;16.45;10.95;;;5.80;99.90;;;;;;5093167;27;20599;-76
2021/10/23 07:23:22;;;;;;;15.38;11.02;;;5.90;99.90;;;;;;5093277;27;20046;-76
2021/10/23 07:25:49;;;;;;;18.75;12.68;;;6.00;99.90;;;;;;5095575;27;20067;-76
2021/10/23 07:28:15;;;;;;;18.15;13.30;;;6.10;99.90;;;;;;5128892;27;20050;-76
2021/10/23 07:30:42;;;;;;;21.73;14.32;;;6.30;99.90;;;;;;5080600;27;20404;-76
2021/10/23 07:33:08;;;;;;;22.45;15.73;;;6.40;99.90;;;;;;5104575;27;20110;-77
2021/10/23 07:35:35;;;;;;;21.83;15.10;;;6.50;99.90;;;;;;5129906;27;20567;-76
2021/10/23 07:38:05;;;;;;;21.75;13.80;;;6.60;99.90;;;;;;5101863;27;20384;-77
2021/10/23 07:40:31;;;;;;;21.00;12.63;;;6.70;99.90;;;;;;5110883;27;20805;-77
2021/10/23 07:42:58;;;;;;;22.35;13.85;;;6.80;99.90;;;;;;5108625;27;20041;-77
2021/10/23 07:45:25;;;;;;;18.15;12.93;;;6.90;99.90;;;;;;5110171;27;20042;-77
2021/10/23 07:47:51;;;;;;;16.17;11.98;;;7.00;99.90;;;;;;5092453;27;20031;-77
2021/10/23 07:50:18;;;;;;;17.50;11.27;;;7.10;99.90;;;;;;5102580;27;20032;-77
2021/10/23 07:52:46;;;;;;;20.27;11.77;;;7.20;99.90;;;;;;5106539;27;20050;-77
2021/10/23 07:55:13;;;;;;;19.92;11.30;;;7.40;99.90;;;;;;5113137;27;20036;-78
2021/10/23 07:57:39;;;;;;;17.52;12.10;;;7.50;99.90;;;;;;5121129;27;20484;-78
2021/10/23 08:00:07;;;;;;;19.15;13.32;;;7.60;99.90;;;;;;5092844;27;20027;-79
2021/10/23 08:02:49;;;;;;;;;;;7.80;99.90;;;;;;5091795;27;20046;-79
2021/10/23 08:05:15;;;;;;;21.48;12.02;;;7.90;99.90;;;;;;5104299;27;20375;-78
2021/10/23 08:07:43;;;;;;;21.95;15.88;;;8.10;99.90;;;;;;5124505;27;20492;-77
2021/10/23 08:10:09;;;;;;;22.55;14.05;;;8.20;99.90;;;;;;5088322;27;20047;-77
2021/10/23 08:12:35;;;;;;;22.85;15.07;;;8.30;99.90;;;;;;5104940;27;21505;-77
2021/10/23 08:15:02;;;;;;;24.02;15.93;;;8.40;99.90;;;;;;5091612;27;20045;-77
2021/10/23 08:17:29;;;;;;;29.65;17.20;;;8.50;99.90;;;;;;5073004;27;20050;-77
2021/10/23 08:19:56;;;;;;;26.42;18.95;;;8.60;99.90;;;;;;5040754;27;20395;-77
2021/10/23 08:22:22;;;;;;;23.80;16.33;;;8.70;99.90;;;;;;5072831;27;20372;-78
2021/10/23 08:24:49;;;;;;;23.05;16.95;;;8.80;99.90;;;;;;5121663;27;20040;-77
2021/10/23 08:27:15;;;;;;;23.70;16.33;;;8.90;99.90;;;;;;5113254;27;20035;-74
2021/10/23 08:29:44;;;;;;;27.90;18.33;;;8.90;99.90;;;;;;5075136;27;20047;-75
2021/10/23 08:32:11;;;;;;;26.55;17.52;;;9.00;99.90;;;;;;5105403;27;20035;-75
2021/10/23 08:34:37;;;;;;;28.30;18.30;;;9.10;99.90;;;;;;5108828;27;20046;-75
2021/10/23 08:37:04;;;;;;;25.65;18.05;;;9.10;99.90;;;;;;5073354;27;20040;-76
2021/10/23 08:39:30;;;;;;;27.13;16.98;;;9.20;99.90;;;;;;5065984;27;20032;-76
2021/10/23 08:41:57;;;;;;;28.88;18.35;;;9.30;99.90;;;;;;5104426;27;20031;-75
2021/10/23 08:44:26;;;;;;;32.22;19.52;;;9.30;99.90;;;;;;5092406;27;20043;-75
2021/10/23 08:46:53;;;;;;;33.30;19.30;;;9.40;99.90;;;;;;5112097;27;20027;-74
2021/10/23 08:49:20;;;;;;;26.05;17.00;;;9.50;99.90;;;;;;5095726;27;20030;-75
2021/10/23 08:51:48;;;;;;;29.77;19.83;;;9.50;99.90;;;;;;5107237;27;20045;-75
2021/10/23 08:54:15;;;;;;;33.15;20.80;;;9.50;99.90;;;;;;5090421;27;20114;-75
2021/10/23 08:56:42;;;;;;;34.15;20.33;;;9.50;99.90;;;;;;5071978;28;20480;-75
2021/10/23 08:59:09;;;;;;;27.73;19.83;;;9.60;99.90;;;;;;5105433;27;20522;-76
2021/10/23 09:01:35;;;;;;;31.50;19.38;;;9.60;99.90;;;;;;5075208;27;20667;-74
2021/10/23 09:04:02;;;;;;;27.42;17.35;;;9.70;99.90;;;;;;5109716;27;20420;-76
2021/10/23 09:06:39;;;;;;;28.20;20.52;;;9.70;99.90;;;;;;5135198;27;20033;-76
2021/10/23 09:09:11;;;;;;;26.92;19.50;;;9.70;99.90;;;;;;5122533;27;20059;-76
2021/10/23 09:11:43;;;;;;;22.42;17.83;;;9.80;99.90;;;;;;5096313;27;20047;-76
2021/10/23 09:14:34;;;;;;;22.35;17.08;;;9.80;99.90;;;;;;5109569;27;20526;-77
2021/10/23 09:17:05;;;;;;;25.60;17.70;;;9.80;99.90;;;;;;5113443;27;20030;-74
2021/10/23 09:19:47;;;;;;;22.95;18.17;;;9.80;99.90;;;;;;5110267;27;20541;-72
2021/10/23 09:22:27;;;;;;;24.95;18.25;;;9.80;99.90;;;;;;5124512;27;20023;-74
2021/10/23 09:25:33;;;;;;;28.83;19.58;;;9.80;99.90;;;;;;5119885;27;20038;-75
2021/10/23 09:28:12;;;;;;;26.10;18.27;;;9.80;99.90;;;;;;5124976;27;20099;-73
2021/10/23 09:30:48;;;;;;;26.50;18.58;;;9.90;99.90;;;;;;5118860;27;20419;-73
2021/10/23 09:33:17;;;;;;;26.08;19.75;;;10.00;99.90;;;;;;5092274;27;20044;-74
2021/10/23 09:36:05;;;;;;;23.05;18.30;;;10.00;99.90;;;;;;5121246;27;20046;-78
2021/10/23 09:38:33;;;;;;;28.98;21.30;;;10.10;99.90;;;;;;5094021;27;20052;-73
2021/10/23 09:41:12;;;;;;;26.13;18.73;;;10.10;99.90;;;;;;5093451;27;20043;-73
2021/10/23 09:43:39;;;;;;;28.50;20.40;;;10.30;99.90;;;;;;5110881;27;20027;-74
2021/10/23 09:46:11;;;;;;;31.92;22.67;;;10.30;99.90;;;;;;5111179;27;20039;-74
2021/10/23 09:48:49;;;;;;;28.30;20.45;;;10.40;99.90;;;;;;5131131;27;20039;-75
2021/10/23 09:51:29;;;;;;;28.45;20.13;;;10.40;99.90;;;;;;5107694;27;20031;-77
2021/10/23 09:54:02;;;;;;;31.77;20.83;;;10.50;99.90;;;;;;5117940;27;20032;-77
2021/10/23 09:56:33;;;;;;;29.00;21.83;;;10.60;99.90;;;;;;5089748;27;20035;-77
2021/10/23 09:59:02;;;;;;;28.38;20.05;;;10.70;99.90;;;;;;5115718;27;20035;-77
2021/10/23 10:01:31;;;;;;;30.45;22.88;;;10.80;99.90;;;;;;5111599;27;20360;-77
2021/10/23 10:04:01;;;;;;;30.23;21.63;;;10.90;99.90;;;;;;5118260;27;20483;-77
2021/10/23 10:06:29;;;;;;;25.92;20.83;;;10.90;99.90;;;;;;5119060;27;20027;-77
2021/10/23 10:08:56;;;;;;;28.85;21.00;;;11.00;99.90;;;;;;5125904;27;20064;-77
2021/10/23 10:11:23;;;;;;;31.65;22.60;;;11.00;99.90;;;;;;5114556;27;20038;-77
2021/10/23 10:13:50;;;;;;;27.92;21.85;;;11.20;99.90;;;;;;5095867;27;20031;-77
2021/10/23 10:16:17;;;;;;;27.23;20.10;;;11.30;99.90;;;;;;5079131;27;20404;-78
2021/10/23 10:18:48;;;;;;;29.48;20.10;;;11.40;99.90;;;;;;5110821;27;20031;-77
2021/10/23 10:21:17;;;;;;;24.95;18.98;;;11.50;99.90;;;;;;5115605;27;20038;-77
2021/10/23 10:23:45;;;;;;;25.95;18.83;;;11.70;99.90;;;;;;5121281;27;20032;-77
2021/10/23 10:26:18;;;;;;;19.63;15.88;;;11.90;99.90;;;;;;5094830;28;20551;-77
2021/10/23 10:29:11;;;;;;;20.70;16.67;;;12.20;99.90;;;;;;5122401;27;20031;-77
2021/10/23 10:32:11;;;;;;;20.15;15.82;;;12.30;99.90;;;;;;5114641;27;20038;-77
2021/10/23 10:43:07;;;;;;;16.30;13.13;;;12.40;99.90;;;;;;5111050;27;20027;-78
2021/10/23 10:48:34;;;;;;;14.07;9.52;;;13.00;99.90;;;;;;5109945;27;20039;-79
2021/10/23 10:51:07;;;;;;;13.27;10.85;;;13.30;99.90;;;;;;5112162;27;20037;-77
2021/10/23 10:54:04;;;;;;;11.60;10.45;;;13.40;99.90;;;;;;5095670;27;20039;-76
2021/10/23 10:56:45;;;;;;;16.45;9.95;;;13.70;99.90;;;;;;5094052;27;20804;-78
2021/10/23 10:59:32;;;;;;;10.27;8.88;;;13.80;99.90;;;;;;5117024;27;20031;-79
2021/10/23 11:02:09;;;;;;;10.05;9.02;;;13.90;99.90;;;;;;5081183;27;20038;-74
2021/10/23 11:05:15;;;;;;;14.95;9.95;;;14.10;99.90;;;;;;5093538;27;20031;-76
2021/10/23 11:08:02;;;;;;;12.02;9.90;;;14.20;99.90;;;;;;5117907;27;20368;-77
2021/10/23 11:10:49;;;;;;;14.98;12.63;;;14.30;99.90;;;;;;5096887;27;20042;-78
2021/10/23 11:13:26;;;;;;;15.38;12.10;;;14.30;99.90;;;;;;5099132;27;20031;-78
2021/10/23 11:15:53;;;;;;;17.85;12.02;;;14.20;99.90;;;;;;5113128;27;20030;-79
2021/10/23 11:18:20;;;;;;;16.92;13.02;;;14.10;99.90;;;;;;5116116;27;20042;-78
2021/10/23 11:20:47;;;;;;;14.95;11.30;;;14.10;99.90;;;;;;5111644;27;20041;-78
2021/10/23 11:23:21;;;;;;;16.02;10.70;;;14.20;99.90;;;;;;5082888;27;20036;-77
2021/10/23 11:25:50;;;;;;;14.25;11.13;;;14.20;99.90;;;;;;5095774;27;20728;-77
2021/10/23 11:28:16;;;;;;;13.98;10.73;;;14.20;99.90;;;;;;5098944;27;20031;-77
2021/10/23 11:30:43;;;;;;;14.95;11.00;;;14.10;99.90;;;;;;5083866;27;20054;-77
2021/10/23 11:33:15;;;;;;;12.32;10.18;;;14.10;99.90;;;;;;5100841;27;20031;-79
2021/10/23 11:35:49;;;;;;;16.30;10.38;;;14.20;99.90;;;;;;5119297;27;20034;-78
2021/10/23 11:38:26;;;;;;;16.25;9.80;;;14.20;99.90;;;;;;5099464;27;20053;-78
2021/10/23 11:40:57;;;;;;;14.00;10.50;;;14.10;99.90;;;;;;5114475;27;20392;-78
2021/10/23 11:43:33;;;;;;;13.07;9.00;;;14.10;99.90;;;;;;5096045;27;20038;-78
2021/10/23 11:46:01;;;;;;;13.80;9.57;;;14.10;99.90;;;;;;5117128;27;20502;-78
2021/10/23 11:48:27;;;;;;;15.73;10.45;;;14.10;99.90;;;;;;5117041;27;20047;-78
2021/10/23 11:50:56;;;;;;;13.55;8.68;;;14.10;99.90;;;;;;5113746;27;20148;-78
2021/10/23 11:53:28;;;;;;;16.10;9.50;;;14.20;99.90;;;;;;5117653;27;20038;-78
2021/10/23 11:56:05;;;;;;;12.15;8.18;;;14.30;99.90;;;;;;5101074;27;20043;-78
2021/10/23 11:58:37;;;;;;;14.48;8.15;;;14.40;99.90;;;;;;5120202;27;20035;-78
2021/10/23 12:01:05;;;;;;;12.20;8.32;;;14.40;99.90;;;;;;5118270;27;20035;-78
2021/10/23 12:03:35;;;;;;;16.67;8.98;;;14.50;99.90;;;;;;5121210;27;20027;-78
2021/10/23 12:06:48;;;;;;;14.32;9.00;;;14.50;99.90;;;;;;5115484;27;20031;-78
2021/10/23 12:09:15;;;;;;;11.85;8.23;;;14.50;99.90;;;;;;5101152;27;20063;-79
2021/10/23 12:11:42;;;;;;;12.48;8.25;;;14.60;99.90;;;;;;5104478;27;20031;-78
2021/10/23 12:14:12;;;;;;;15.02;7.93;;;14.50;99.90;;;;;;5097668;27;20402;-78
2021/10/23 12:16:46;;;;;;;11.38;7.85;;;14.50;99.90;;;;;;5114684;27;20034;-78
2021/10/23 12:19:22;;;;;;;12.57;8.38;;;14.50;99.90;;;;;;5110040;27;20036;-78
2021/10/23 12:22:09;;;;;;;13.80;7.93;;;14.50;99.90;;;;;;5115278;27;20033;-78
2021/10/23 12:24:42;;;;;;;12.57;8.30;;;14.50;99.90;;;;;;5119531;27;20050;-78
2021/10/23 12:27:22;;;;;;;12.77;7.95;;;14.40;99.90;;;;;;5126329;27;20459;-78
2021/10/23 12:29:51;;;;;;;13.02;9.38;;;14.50;99.90;;;;;;5126159;27;20035;-78
2021/10/23 12:32:20;;;;;;;13.77;8.75;;;14.40;99.90;;;;;;5131126;27;20027;-78
2021/10/23 12:34:52;;;;;;;14.23;9.50;;;14.40;99.90;;;;;;5122432;27;20492;-78
2021/10/23 12:37:31;;;;;;;14.70;9.52;;;14.40;99.90;;;;;;5112616;27;20035;-78
2021/10/23 12:40:22;;;;;;;12.23;7.80;;;14.30;99.90;;;;;;5122436;27;20036;-78
2021/10/23 12:43:18;;;;;;;12.85;9.07;;;14.30;99.90;;;;;;5081146;27;20050;-78
2021/10/23 12:45:46;;;;;;;12.15;9.48;;;14.20;99.90;;;;;;5121677;27;20039;-78
2021/10/23 12:48:18;;;;;;;12.27;8.88;;;14.20;99.90;;;;;;5094826;27;20050;-78
2021/10/23 12:50:47;;;;;;;14.43;9.48;;;14.20;99.90;;;;;;5127488;27;20039;-79
2021/10/23 12:53:13;;;;;;;12.50;9.32;;;14.20;99.90;;;;;;5117744;27;20349;-78
2021/10/23 12:55:41;;;;;;;14.20;9.38;;;14.20;99.90;;;;;;5123907;27;20550;-78
2021/10/23 12:58:09;;;;;;;14.52;10.05;;;14.30;99.90;;;;;;5109864;27;20039;-78
2021/10/23 13:00:38;;;;;;;16.33;11.32;;;14.20;99.90;;;;;;5097643;27;20035;-77
2021/10/23 13:03:06;;;;;;;17.02;11.75;;;14.30;99.90;;;;;;5120151;27;20483;-76
2021/10/23 13:05:32;;;;;;;17.73;12.35;;;14.20;99.90;;;;;;5090718;27;20023;-77
2021/10/23 13:07:58;;;;;;;15.27;11.93;;;14.20;99.90;;;;;;5123778;27;20051;-76
2021/10/23 13:10:25;;;;;;;19.67;13.43;;;14.10;99.90;;;;;;5113992;27;20108;-76